Data Viewer
| City | State | Eastern Time | Source | Temp | DewPt | RH | BP | 5 Min Precip | Wind Speed | Wind Dir | 5 Min Wind Max | 5 Min Wind Max Dir |
|---|---|---|---|---|---|---|---|---|---|---|---|---|
| Sussex | NJ | 2026-05-09 00:05 | ASOS | 48 | 43 | 81 | 29.93 | 0 | N | |||
| Sussex | NJ | 2026-05-09 06:20 | ASOS | 48 | 46 | 93 | 29.90 | 0 | N | |||
| Sussex | NJ | 2026-05-09 04:53 | ASOS | 49 | 45 | 86 | 29.91 | 0 | N | |||
| Sussex | NJ | 2026-05-09 05:00 | ASOS | 48 | 45 | 87 | 29.91 | 0 | N | |||
| Sussex | NJ | 2026-05-09 05:02 | ASOS | 49 | 45 | 86 | 29.91 | 0 | N | |||
| Sussex | NJ | 2026-05-09 05:05 | ASOS | 48 | 46 | 93 | 29.91 | 0 | N | |||
| Sussex | NJ | 2026-05-09 05:10 | ASOS | 48 | 46 | 93 | 29.91 | 0 | N | |||
| Sussex | NJ | 2026-05-09 05:15 | ASOS | 48 | 46 | 93 | 29.90 | 0 | N | |||
| Sussex | NJ | 2026-05-09 05:25 | ASOS | 48 | 46 | 93 | 29.90 | 0 | N | |||
| Sussex | NJ | 2026-05-09 05:30 | ASOS | 48 | 46 | 93 | 29.91 | 0 | N | |||
| Sussex | NJ | 2026-05-09 05:35 | ASOS | 48 | 46 | 93 | 29.90 | 3 | NE | |||
| Sussex | NJ | 2026-05-09 05:53 | ASOS | 49 | 46 | 90 | 29.90 | 0 | N | |||
| Sussex | NJ | 2026-05-09 06:25 | ASOS | 50 | 46 | 87 | 29.91 | 0 | N | |||
| Sussex | NJ | 2026-05-09 04:35 | ASOS | 48 | 45 | 87 | 29.91 | 0 | N | |||
| Sussex | NJ | 2026-05-09 06:40 | ASOS | 50 | 46 | 87 | 29.91 | 3 | ENE | |||
| Sussex | NJ | 2026-05-09 06:53 | ASOS | 50 | 45 | 83 | 29.91 | 5 | ENE | |||
| Sussex | NJ | 2026-05-09 07:20 | ASOS | 50 | 45 | 82 | 29.90 | 6 | NNE | |||
| Sussex | NJ | 2026-05-09 07:25 | ASOS | 50 | 45 | 82 | 29.90 | 6 | NNE | |||
| Sussex | NJ | 2026-05-09 07:53 | ASOS | 51 | 45 | 79 | 29.90 | 6 | NE | |||
| Sussex | NJ | 2026-05-09 08:15 | ASOS | 52 | 45 | 76 | 29.91 | 0 | N | |||
| Sussex | NJ | 2026-05-09 08:25 | ASOS | 52 | 45 | 76 | 29.91 | 0 | N | |||
| Sussex | NJ | 2026-05-09 08:53 | ASOS | 52 | 46 | 80 | 29.91 | 3 | NE | |||
| Sussex | NJ | 2026-05-09 09:05 | ASOS | 52 | 46 | 82 | 29.90 | 5 | NNE | |||
| Sussex | NJ | 2026-05-09 09:53 | ASOS | 54 | 47 | 77 | 29.90 | 3 | NE | |||
| Sussex | NJ | 2026-05-09 04:40 | ASOS | 48 | 45 | 87 | 29.91 | 3 | ESE | |||
| Sussex | NJ | 2026-05-09 04:30 | ASOS | 48 | 45 | 87 | 29.91 | 0 | N | |||
| Sussex | NJ | 2026-05-09 00:15 | ASOS | 48 | 43 | 81 | 29.93 | 0 | N | |||
| Sussex | NJ | 2026-05-09 02:15 | ASOS | 48 | 45 | 87 | 29.92 | 0 | N | |||
| Sussex | NJ | 2026-05-09 00:20 | ASOS | 50 | 43 | 76 | 29.93 | 0 | N | |||
| Sussex | NJ | 2026-05-09 00:25 | ASOS | 50 | 43 | 76 | 29.93 | 0 | N | |||
| Sussex | NJ | 2026-05-09 00:53 | ASOS | 50 | 44 | 80 | 29.92 | 0 | N | |||
| Sussex | NJ | 2026-05-09 01:05 | ASOS | 48 | 45 | 87 | 29.92 | 3 | NW | |||
| Sussex | NJ | 2026-05-09 01:10 | ASOS | 48 | 45 | 87 | 29.92 | 0 | N | |||
| Sussex | NJ | 2026-05-09 01:15 | ASOS | 48 | 45 | 87 | 29.92 | 0 | N | |||
| Sussex | NJ | 2026-05-09 01:20 | ASOS | 48 | 45 | 87 | 29.92 | 0 | N | |||
| Sussex | NJ | 2026-05-09 01:25 | ASOS | 50 | 45 | 82 | 29.92 | 0 | N | |||
| Sussex | NJ | 2026-05-09 01:35 | ASOS | 48 | 45 | 87 | 29.93 | 0 | N | |||
| Sussex | NJ | 2026-05-09 01:53 | ASOS | 49 | 44 | 83 | 29.93 | 0 | N | |||
| Sussex | NJ | 2026-05-09 02:20 | ASOS | 48 | 45 | 87 | 29.92 | 0 | N | |||
| Sussex | NJ | 2026-05-09 04:25 | ASOS | 48 | 45 | 87 | 29.91 | 0 | N | |||
| Sussex | NJ | 2026-05-09 02:25 | ASOS | 48 | 45 | 87 | 29.90 | 5 | NE | |||
| Sussex | NJ | 2026-05-09 02:35 | ASOS | 48 | 45 | 87 | 29.90 | 0 | N | |||
| Sussex | NJ | 2026-05-09 02:53 | ASOS | 50 | 45 | 83 | 29.90 | 0 | N | |||
| Sussex | NJ | 2026-05-09 03:15 | ASOS | 48 | 45 | 87 | 29.91 | 3 | S | |||
| Sussex | NJ | 2026-05-09 03:20 | ASOS | 48 | 45 | 87 | 29.91 | 0 | N | |||
| Sussex | NJ | 2026-05-09 03:25 | ASOS | 48 | 45 | 87 | 29.91 | 0 | N | |||
| Sussex | NJ | 2026-05-09 03:30 | ASOS | 48 | 45 | 87 | 29.91 | 0 | N | |||
| Sussex | NJ | 2026-05-09 03:35 | ASOS | 48 | 45 | 87 | 29.91 | 0 | N | |||
| Sussex | NJ | 2026-05-09 03:53 | ASOS | 49 | 45 | 86 | 29.91 | 0 | N | |||
| Sussex | NJ | 2026-05-09 04:15 | ASOS | 48 | 45 | 87 | 29.91 | 0 | N | |||
| Sussex | NJ | 2026-05-09 04:20 | ASOS | 48 | 45 | 87 | 29.91 | 0 | N | |||
| Sussex | NJ | 2026-05-09 10:53 | ASOS | 54 | 48 | 80 | 29.90 | 0 | N |
data collection created in 0.0083951950073242 (queried in 0.001953) rendered in: 7.3909759521484E-5

